Ifestos 2 — SW5647 — position and weather

sailwx.info

Track history (hours):
 
Tides and Currents Weather Stations Pressure Air Temp Water Temp Dewpoint Dewpoint Depression Visibility Wind Speed Wind Dir Waves Ship Positions

Ifestos 2

Last reported at 2018-Jun-18 23:55 UTC. Time now 2018-Jun-19 08:19 UTC.
Position N 37°57' E 023°37'.

Length 30 m; draft 3.3 m.

Type: Tug. MMSI: 237070600.

Date/timePositionNaut miles runAvg speedWind from/ knotsBaromVisibWave heightAir tempDewpointWater temp
2018-Jun-18 23:55N 37°57' E 023°37'0 0.0
2018-Jun-18 23:30N 37°57' E 023°37'0 0.0
2018-Jun-18 23:00N 37°57' E 023°37'0 0.0
2018-Jun-18 22:30N 37°57' E 023°37'1 3.0
2018-Jun-18 22:00N 37°57' E 023°35'2 3.1
2018-Jun-18 21:30N 37°56' E 023°35'2 3.4
2018-Jun-18 21:00N 37°57' E 023°36'0 0.3
2018-Jun-18 20:30N 37°57' E 023°36'1 1.8
2018-Jun-18 20:00N 37°56' E 023°36'1 1.7
2018-Jun-18 19:30N 37°57' E 023°36'1 1.4
2018-Jun-18 19:00N 37°57' E 023°37'0 0.0
2018-Jun-18 18:30N 37°57' E 023°37'0 0.0
2018-Jun-18 18:00N 37°57' E 023°37'1 1.4
2018-Jun-18 17:30N 37°57' E 023°36'1 2.1
2018-Jun-18 17:00N 37°56' E 023°36'1 2.0
2018-Jun-18 16:30N 37°57' E 023°36'1 1.4
2018-Jun-18 16:00N 37°57' E 023°37'0 0.0
2018-Jun-18 15:30N 37°57' E 023°37'0 0.0
2018-Jun-18 15:00N 37°57' E 023°37'0 0.0
2018-Jun-18 14:30N 37°57' E 023°37'0 0.0
2018-Jun-18 14:00N 37°57' E 023°37'0 0.0
2018-Jun-18 13:30N 37°57' E 023°37'0 0.0
2018-Jun-18 13:00N 37°57' E 023°37'0 0.0
2018-Jun-18 12:30N 37°57' E 023°37'0 0.0
2018-Jun-18 12:00N 37°57' E 023°37'0 0.0
2018-Jun-18 11:30N 37°57' E 023°37'0 0.0
2018-Jun-18 11:00N 37°57' E 023°37'  
2018-Jun-15 11:29N 37°57' E 023°37'1 2.4
2018-Jun-15 11:00N 37°57' E 023°35'1 2.3
2018-Jun-15 10:30N 37°57' E 023°37'0 0.0
2018-Jun-15 10:00N 37°57' E 023°37'3 6.1
2018-Jun-15 09:31N 37°58' E 023°33'5 8.9
2018-Jun-15 09:00N 38°02' E 023°31'1 1.1
2018-Jun-15 08:30N 38°02' E 023°31'3 5.9
2018-Jun-15 08:00N 38°01' E 023°35'1 1.2
2018-Jun-15 07:30N 38°02' E 023°36'0 0.2
2018-Jun-15 07:01N 38°01' E 023°35'0 0.1
2018-Jun-15 06:12N 38°01' E 023°35'0 0.0
2018-Jun-15 05:56N 38°01' E 023°35'0 0.0
2018-Jun-15 05:29N 38°01' E 023°35'4 7.6
2018-Jun-15 05:00N 37°58' E 023°33'2 4.4
2018-Jun-15 04:30N 37°57' E 023°35'0 0.3
2018-Jun-15 04:00N 37°57' E 023°35'1 2.2
2018-Jun-15 03:30N 37°57' E 023°37'0 0.0
2018-Jun-15 03:01N 37°57' E 023°37'0 0.0
2018-Jun-14 17:49N 37°57' E 023°37'1 3.0
2018-Jun-14 17:30N 37°57' E 023°36'0 0.6
2018-Jun-14 17:00N 37°57' E 023°35'1 1.3
2018-Jun-14 16:30N 37°57' E 023°36'0 0.8
2018-Jun-14 16:00N 37°57' E 023°37'0 0.0
2018-Jun-14 15:30N 37°57' E 023°37'0 0.0
2018-Jun-14 15:00N 37°57' E 023°37'0 0.0
2018-Jun-14 14:30N 37°57' E 023°37'0 0.0
2018-Jun-14 14:00N 37°57' E 023°37'0 0.0
2018-Jun-14 13:30N 37°57' E 023°37'0 0.0
2018-Jun-14 13:00N 37°57' E 023°37'0 0.0
2018-Jun-14 12:30N 37°57' E 023°37'0 0.0
2018-Jun-14 12:00N 37°57' E 023°37'0 0.0
2018-Jun-14 11:30N 37°57' E 023°37'1 1.4
2018-Jun-14 11:00N 37°57' E 023°36'1 2.8
2018-Jun-14 10:30N 37°56' E 023°36'1 2.9
2018-Jun-14 10:00N 37°57' E 023°37'0 0.0
2018-Jun-14 09:30N 37°57' E 023°37'0 0.0
2018-Jun-14 09:00N 37°57' E 023°37'0 0.0
2018-Jun-14 08:30N 37°57' E 023°37'1 0.4
2018-Jun-14 06:25N 37°57' E 023°36'1 0.5
2018-Jun-14 05:16N 37°57' E 023°37'1 3.0
2018-Jun-14 04:58N 37°57' E 023°36'0 0.2
2018-Jun-14 04:30N 37°57' E 023°36'1 1.1
2018-Jun-14 04:00N 37°57' E 023°36'1 0.1
2018-Jun-13 10:56N 37°57' E 023°37'1 1.7
2018-Jun-13 10:30N 37°57' E 023°36'0 1.0
2018-Jun-13 10:00N 37°58' E 023°36'0 0.7
2018-Jun-13 09:30N 37°57' E 023°37'0 0.0
2018-Jun-13 09:00N 37°57' E 023°37'0 0.0
2018-Jun-13 08:30N 37°57' E 023°37'0 0.0
2018-Jun-13 08:00N 37°57' E 023°37'0 0.0
2018-Jun-13 07:30N 37°57' E 023°37'0 0.0
2018-Jun-13 07:00N 37°57' E 023°37'0 0.0
2018-Jun-13 06:30N 37°57' E 023°37'1 1.4
2018-Jun-13 06:01N 37°57' E 023°36'1 1.5
2018-Jun-13 05:31N 37°57' E 023°36'1 2.1
2018-Jun-13 05:01N 37°57' E 023°37'0 0.0
2018-Jun-13 04:30N 37°57' E 023°37'0 0.0
2018-Jun-13 04:00N 37°57' E 023°37'0 0.0
2018-Jun-13 03:30N 37°57' E 023°37'0 0.0
2018-Jun-13 03:00N 37°57' E 023°37'0 0.0
2018-Jun-13 02:30N 37°57' E 023°37'0 0.0
2018-Jun-13 02:00N 37°57' E 023°37'0 0.0
2018-Jun-13 01:31N 37°57' E 023°37'0 0.0
2018-Jun-13 01:00N 37°57' E 023°37'0 0.0
2018-Jun-13 00:30N 37°57' E 023°37'0 0.0
2018-Jun-13 00:00N 37°57' E 023°37'0 0.0
2018-Jun-12 23:30N 37°57' E 023°37'0 0.0
2018-Jun-12 23:00N 37°57' E 023°37'0 0.0
2018-Jun-12 22:30N 37°57' E 023°37'0 0.0
2018-Jun-12 22:00N 37°57' E 023°37'0 0.0
2018-Jun-12 21:30N 37°57' E 023°37'0 0.0
2018-Jun-12 21:00N 37°57' E 023°37'0 0.0
2018-Jun-12 20:30N 37°57' E 023°37'1 1.1
2018-Jun-12 20:00N 37°57' E 023°36'1 2.1
2018-Jun-12 19:30N 37°57' E 023°35'1 2.4
2018-Jun-12 19:01N 37°57' E 023°36'0 0.9
2018-Jun-12 18:30N 37°57' E 023°37'0 0.0
2018-Jun-12 18:00N 37°57' E 023°37'0 0.6
2018-Jun-12 17:30N 37°57' E 023°36'0 0.6
2018-Jun-12 17:01N 37°57' E 023°37'0 0.0
2018-Jun-12 16:31N 37°57' E 023°37'0 0.0
2018-Jun-12 16:00N 37°57' E 023°37'0 0.0
2018-Jun-12 15:30N 37°57' E 023°37'0 0.0
2018-Jun-12 15:00N 37°57' E 023°37'0 0.0
2018-Jun-12 14:30N 37°57' E 023°37'0 0.0
2018-Jun-12 14:00N 37°57' E 023°37'0 0.0
2018-Jun-12 13:31N 37°57' E 023°37'0 0.7
2018-Jun-12 13:00N 37°57' E 023°36'0 0.7
2018-Jun-12 12:30N 37°57' E 023°37'0 0.0
2018-Jun-12 12:00N 37°57' E 023°37'0 0.0
2018-Jun-12 11:30N 37°57' E 023°37'0 0.0
2018-Jun-12 11:00N 37°57' E 023°37'1 1.5
2018-Jun-12 10:30N 37°57' E 023°36'2 4.2
2018-Jun-12 10:00N 37°55' E 023°36'2 4.2
2018-Jun-12 09:30N 37°57' E 023°37'0 0.0
2018-Jun-12 09:00N 37°57' E 023°37'0 0.0
2018-Jun-12 08:31N 37°57' E 023°37'0 0.0
2018-Jun-12 08:00N 37°57' E 023°37'0 0.0
2018-Jun-12 07:30N 37°57' E 023°37'0 0.0
2018-Jun-12 07:00N 37°57' E 023°37'0 0.0
2018-Jun-12 06:30N 37°57' E 023°37'0 0.0
2018-Jun-12 06:00N 37°57' E 023°37'0 0.0
2018-Jun-12 05:30N 37°57' E 023°37'0 0.0
2018-Jun-12 05:01N 37°57' E 023°37'0 0.5
2018-Jun-12 04:31N 37°58' E 023°36'0 0.3
2018-Jun-12 04:00N 37°57' E 023°37'0 0.2
2018-Jun-12 03:30N 37°57' E 023°37'0 0.0
2018-Jun-12 03:00N 37°57' E 023°37'0 0.0
2018-Jun-10 12:47N 37°57' E 023°37'1 3.9
2018-Jun-10 12:30N 37°57' E 023°35'1 1.2
2018-Jun-10 12:00N 37°57' E 023°35'1 1.7
2018-Jun-10 11:30N 37°57' E 023°36'0 0.3
2018-Jun-10 11:00N 37°57' E 023°36'1 1.0
2018-Jun-10 10:30N 37°57' E 023°37'0 0.0
2018-Jun-10 10:00N 37°57' E 023°37'0 0.0
2018-Jun-10 09:30N 37°57' E 023°37'0 0.0
2018-Jun-10 09:00N 37°57' E 023°37'0 0.0
2018-Jun-10 08:30N 37°57' E 023°37'0 0.0
2018-Jun-10 08:00N 37°57' E 023°37'0 0.0
2018-Jun-10 07:30N 37°57' E 023°37'0 0.0
2018-Jun-10 07:00N 37°57' E 023°37'1 1.4
2018-Jun-10 06:30N 37°57' E 023°36'2 3.1
2018-Jun-10 06:00N 37°56' E 023°36'0 0.8
2018-Jun-10 05:30N 37°56' E 023°36'1 2.7
2018-Jun-10 05:00N 37°57' E 023°35'1 1.5
2018-Jun-10 04:30N 37°57' E 023°36'0 0.7
2018-Jun-10 04:00N 37°57' E 023°37'0 0.0
2018-Jun-10 03:30N 37°57' E 023°37'0 0.0
2018-Jun-10 03:00N 37°57' E 023°37'0 0.0
2018-Jun-09 14:53N 37°57' E 023°37'1 3.3
2018-Jun-09 14:30N 37°56' E 023°37'0 0.2
2018-Jun-09 14:00N 37°56' E 023°37'1 1.8
2018-Jun-09 13:30N 37°57' E 023°38'0 0.0
2018-Jun-09 13:00N 37°57' E 023°38'0 0.8
2018-Jun-09 12:30N 37°56' E 023°38'2 4.7
2018-Jun-09 12:00N 37°57' E 023°35'1 1.1
2018-Jun-09 11:30N 37°57' E 023°36'1 1.5
2018-Jun-09 11:00N 37°57' E 023°36'1 1.9
2018-Jun-09 10:30N 37°57' E 023°37'0 0.0
2018-Jun-09 10:00N 37°57' E 023°37'0 0.0
2018-Jun-09 09:30N 37°57' E 023°37'0 0.0
2018-Jun-09 09:00N 37°57' E 023°37'0 0.0
2018-Jun-09 08:30N 37°57' E 023°37'0 0.0
2018-Jun-09 08:00N 37°57' E 023°37'0 0.0
2018-Jun-09 07:30N 37°57' E 023°37'1 1.8
2018-Jun-09 07:00N 37°57' E 023°36'0 1.0
2018-Jun-09 06:30N 37°57' E 023°35'1 1.5
2018-Jun-09 06:00N 37°56' E 023°36'1 1.7
2018-Jun-09 05:30N 37°57' E 023°35'0 0.9
2018-Jun-09 05:00N 37°57' E 023°36'0 0.6
2018-Jun-09 04:30N 37°57' E 023°36'0 0.8
2018-Jun-09 04:00N 37°57' E 023°36'1 1.4
2018-Jun-09 03:30N 37°57' E 023°37'0 0.0
2018-Jun-09 03:00N 37°57' E 023°37'  
Track history (hours):
 
Tides and Currents Weather Stations Pressure Air Temp Water Temp Dewpoint Dewpoint Depression Visibility Wind Speed Wind Dir Waves Ship Positions

Ifestos 2

Last reported at 2018-Jun-18 23:55 UTC. Time now 2018-Jun-19 08:19 UTC.
Position N 37°57' E 023°37'.

Length 30 m; draft 3.3 m.

Type: Tug. MMSI: 237070600.

Date/timePositionNaut miles runAvg speedWind from/ knotsBaromVisibWave heightAir tempDewpointWater temp
2018-Jun-18 23:55N 37°57' E 023°37'0 0.0
2018-Jun-18 23:30N 37°57' E 023°37'0 0.0
2018-Jun-18 23:00N 37°57' E 023°37'0 0.0
2018-Jun-18 22:30N 37°57' E 023°37'1 3.0
2018-Jun-18 22:00N 37°57' E 023°35'2 3.1
2018-Jun-18 21:30N 37°56' E 023°35'2 3.4
2018-Jun-18 21:00N 37°57' E 023°36'0 0.3
2018-Jun-18 20:30N 37°57' E 023°36'1 1.8
2018-Jun-18 20:00N 37°56' E 023°36'1 1.7
2018-Jun-18 19:30N 37°57' E 023°36'1 1.4
2018-Jun-18 19:00N 37°57' E 023°37'0 0.0
2018-Jun-18 18:30N 37°57' E 023°37'0 0.0
2018-Jun-18 18:00N 37°57' E 023°37'1 1.4
2018-Jun-18 17:30N 37°57' E 023°36'1 2.1
2018-Jun-18 17:00N 37°56' E 023°36'1 2.0
2018-Jun-18 16:30N 37°57' E 023°36'1 1.4
2018-Jun-18 16:00N 37°57' E 023°37'0 0.0
2018-Jun-18 15:30N 37°57' E 023°37'0 0.0
2018-Jun-18 15:00N 37°57' E 023°37'0 0.0
2018-Jun-18 14:30N 37°57' E 023°37'0 0.0
2018-Jun-18 14:00N 37°57' E 023°37'0 0.0
2018-Jun-18 13:30N 37°57' E 023°37'0 0.0
2018-Jun-18 13:00N 37°57' E 023°37'0 0.0
2018-Jun-18 12:30N 37°57' E 023°37'0 0.0
2018-Jun-18 12:00N 37°57' E 023°37'0 0.0
2018-Jun-18 11:30N 37°57' E 023°37'0 0.0
2018-Jun-18 11:00N 37°57' E 023°37'  
2018-Jun-15 11:29N 37°57' E 023°37'1 2.4
2018-Jun-15 11:00N 37°57' E 023°35'1 2.3
2018-Jun-15 10:30N 37°57' E 023°37'0 0.0
2018-Jun-15 10:00N 37°57' E 023°37'3 6.1
2018-Jun-15 09:31N 37°58' E 023°33'5 8.9
2018-Jun-15 09:00N 38°02' E 023°31'1 1.1
2018-Jun-15 08:30N 38°02' E 023°31'3 5.9
2018-Jun-15 08:00N 38°01' E 023°35'1 1.2
2018-Jun-15 07:30N 38°02' E 023°36'0 0.2
2018-Jun-15 07:01N 38°01' E 023°35'0 0.1
2018-Jun-15 06:12N 38°01' E 023°35'0 0.0
2018-Jun-15 05:56N 38°01' E 023°35'0 0.0
2018-Jun-15 05:29N 38°01' E 023°35'4 7.6
2018-Jun-15 05:00N 37°58' E 023°33'2 4.4
2018-Jun-15 04:30N 37°57' E 023°35'0 0.3
2018-Jun-15 04:00N 37°57' E 023°35'1 2.2
2018-Jun-15 03:30N 37°57' E 023°37'0 0.0
2018-Jun-15 03:01N 37°57' E 023°37'0 0.0
2018-Jun-14 17:49N 37°57' E 023°37'1 3.0
2018-Jun-14 17:30N 37°57' E 023°36'0 0.6
2018-Jun-14 17:00N 37°57' E 023°35'1 1.3
2018-Jun-14 16:30N 37°57' E 023°36'0 0.8
2018-Jun-14 16:00N 37°57' E 023°37'0 0.0
2018-Jun-14 15:30N 37°57' E 023°37'0 0.0
2018-Jun-14 15:00N 37°57' E 023°37'0 0.0
2018-Jun-14 14:30N 37°57' E 023°37'0 0.0
2018-Jun-14 14:00N 37°57' E 023°37'0 0.0
2018-Jun-14 13:30N 37°57' E 023°37'0 0.0
2018-Jun-14 13:00N 37°57' E 023°37'0 0.0
2018-Jun-14 12:30N 37°57' E 023°37'0 0.0
2018-Jun-14 12:00N 37°57' E 023°37'0 0.0
2018-Jun-14 11:30N 37°57' E 023°37'1 1.4
2018-Jun-14 11:00N 37°57' E 023°36'1 2.8
2018-Jun-14 10:30N 37°56' E 023°36'1 2.9
2018-Jun-14 10:00N 37°57' E 023°37'0 0.0
2018-Jun-14 09:30N 37°57' E 023°37'0 0.0
2018-Jun-14 09:00N 37°57' E 023°37'0 0.0
2018-Jun-14 08:30N 37°57' E 023°37'1 0.4
2018-Jun-14 06:25N 37°57' E 023°36'1 0.5
2018-Jun-14 05:16N 37°57' E 023°37'1 3.0
2018-Jun-14 04:58N 37°57' E 023°36'0 0.2
2018-Jun-14 04:30N 37°57' E 023°36'1 1.1
2018-Jun-14 04:00N 37°57' E 023°36'1 0.1
2018-Jun-13 10:56N 37°57' E 023°37'1 1.7
2018-Jun-13 10:30N 37°57' E 023°36'0 1.0
2018-Jun-13 10:00N 37°58' E 023°36'0 0.7
2018-Jun-13 09:30N 37°57' E 023°37'0 0.0
2018-Jun-13 09:00N 37°57' E 023°37'0 0.0
2018-Jun-13 08:30N 37°57' E 023°37'0 0.0
2018-Jun-13 08:00N 37°57' E 023°37'0 0.0
2018-Jun-13 07:30N 37°57' E 023°37'0 0.0
2018-Jun-13 07:00N 37°57' E 023°37'0 0.0
2018-Jun-13 06:30N 37°57' E 023°37'1 1.4
2018-Jun-13 06:01N 37°57' E 023°36'1 1.5
2018-Jun-13 05:31N 37°57' E 023°36'1 2.1
2018-Jun-13 05:01N 37°57' E 023°37'0 0.0
2018-Jun-13 04:30N 37°57' E 023°37'0 0.0
2018-Jun-13 04:00N 37°57' E 023°37'0 0.0
2018-Jun-13 03:30N 37°57' E 023°37'0 0.0
2018-Jun-13 03:00N 37°57' E 023°37'0 0.0
2018-Jun-13 02:30N 37°57' E 023°37'0 0.0
2018-Jun-13 02:00N 37°57' E 023°37'0 0.0
2018-Jun-13 01:31N 37°57' E 023°37'0 0.0
2018-Jun-13 01:00N 37°57' E 023°37'0 0.0
2018-Jun-13 00:30N 37°57' E 023°37'0 0.0
2018-Jun-13 00:00N 37°57' E 023°37'0 0.0
2018-Jun-12 23:30N 37°57' E 023°37'0 0.0
2018-Jun-12 23:00N 37°57' E 023°37'0 0.0
2018-Jun-12 22:30N 37°57' E 023°37'0 0.0
2018-Jun-12 22:00N 37°57' E 023°37'0 0.0
2018-Jun-12 21:30N 37°57' E 023°37'0 0.0
2018-Jun-12 21:00N 37°57' E 023°37'0 0.0
2018-Jun-12 20:30N 37°57' E 023°37'1 1.1
2018-Jun-12 20:00N 37°57' E 023°36'1 2.1
2018-Jun-12 19:30N 37°57' E 023°35'1 2.4
2018-Jun-12 19:01N 37°57' E 023°36'0 0.9
2018-Jun-12 18:30N 37°57' E 023°37'0 0.0
2018-Jun-12 18:00N 37°57' E 023°37'0 0.6
2018-Jun-12 17:30N 37°57' E 023°36'0 0.6
2018-Jun-12 17:01N 37°57' E 023°37'0 0.0
2018-Jun-12 16:31N 37°57' E 023°37'0 0.0
2018-Jun-12 16:00N 37°57' E 023°37'0 0.0
2018-Jun-12 15:30N 37°57' E 023°37'0 0.0
2018-Jun-12 15:00N 37°57' E 023°37'0 0.0
2018-Jun-12 14:30N 37°57' E 023°37'0 0.0
2018-Jun-12 14:00N 37°57' E 023°37'0 0.0
2018-Jun-12 13:31N 37°57' E 023°37'0 0.7
2018-Jun-12 13:00N 37°57' E 023°36'0 0.7
2018-Jun-12 12:30N 37°57' E 023°37'0 0.0
2018-Jun-12 12:00N 37°57' E 023°37'0 0.0
2018-Jun-12 11:30N 37°57' E 023°37'0 0.0
2018-Jun-12 11:00N 37°57' E 023°37'1 1.5
2018-Jun-12 10:30N 37°57' E 023°36'2 4.2
2018-Jun-12 10:00N 37°55' E 023°36'2 4.2
2018-Jun-12 09:30N 37°57' E 023°37'0 0.0
2018-Jun-12 09:00N 37°57' E 023°37'0 0.0
2018-Jun-12 08:31N 37°57' E 023°37'0 0.0
2018-Jun-12 08:00N 37°57' E 023°37'0 0.0
2018-Jun-12 07:30N 37°57' E 023°37'0 0.0
2018-Jun-12 07:00N 37°57' E 023°37'0 0.0
2018-Jun-12 06:30N 37°57' E 023°37'0 0.0
2018-Jun-12 06:00N 37°57' E 023°37'0 0.0
2018-Jun-12 05:30N 37°57' E 023°37'0 0.0
2018-Jun-12 05:01N 37°57' E 023°37'0 0.5
2018-Jun-12 04:31N 37°58' E 023°36'0 0.3
2018-Jun-12 04:00N 37°57' E 023°37'0 0.2
2018-Jun-12 03:30N 37°57' E 023°37'0 0.0
2018-Jun-12 03:00N 37°57' E 023°37'0 0.0
2018-Jun-10 12:47N 37°57' E 023°37'1 3.9
2018-Jun-10 12:30N 37°57' E 023°35'1 1.2
2018-Jun-10 12:00N 37°57' E 023°35'1 1.7
2018-Jun-10 11:30N 37°57' E 023°36'0 0.3
2018-Jun-10 11:00N 37°57' E 023°36'1 1.0
2018-Jun-10 10:30N 37°57' E 023°37'0 0.0
2018-Jun-10 10:00N 37°57' E 023°37'0 0.0
2018-Jun-10 09:30N 37°57' E 023°37'0 0.0
2018-Jun-10 09:00N 37°57' E 023°37'0 0.0
2018-Jun-10 08:30N 37°57' E 023°37'0 0.0
2018-Jun-10 08:00N 37°57' E 023°37'0 0.0
2018-Jun-10 07:30N 37°57' E 023°37'0 0.0
2018-Jun-10 07:00N 37°57' E 023°37'1 1.4
2018-Jun-10 06:30N 37°57' E 023°36'2 3.1
2018-Jun-10 06:00N 37°56' E 023°36'0 0.8
2018-Jun-10 05:30N 37°56' E 023°36'1 2.7
2018-Jun-10 05:00N 37°57' E 023°35'1 1.5
2018-Jun-10 04:30N 37°57' E 023°36'0 0.7
2018-Jun-10 04:00N 37°57' E 023°37'0 0.0
2018-Jun-10 03:30N 37°57' E 023°37'0 0.0
2018-Jun-10 03:00N 37°57' E 023°37'0 0.0
2018-Jun-09 14:53N 37°57' E 023°37'1 3.3
2018-Jun-09 14:30N 37°56' E 023°37'0 0.2
2018-Jun-09 14:00N 37°56' E 023°37'1 1.8
2018-Jun-09 13:30N 37°57' E 023°38'0 0.0
2018-Jun-09 13:00N 37°57' E 023°38'0 0.8
2018-Jun-09 12:30N 37°56' E 023°38'2 4.7
2018-Jun-09 12:00N 37°57' E 023°35'1 1.1
2018-Jun-09 11:30N 37°57' E 023°36'1 1.5
2018-Jun-09 11:00N 37°57' E 023°36'1 1.9
2018-Jun-09 10:30N 37°57' E 023°37'0 0.0
2018-Jun-09 10:00N 37°57' E 023°37'0 0.0
2018-Jun-09 09:30N 37°57' E 023°37'0 0.0
2018-Jun-09 09:00N 37°57' E 023°37'0 0.0
2018-Jun-09 08:30N 37°57' E 023°37'0 0.0
2018-Jun-09 08:00N 37°57' E 023°37'0 0.0
2018-Jun-09 07:30N 37°57' E 023°37'1 1.8
2018-Jun-09 07:00N 37°57' E 023°36'0 1.0
2018-Jun-09 06:30N 37°57' E 023°35'1 1.5
2018-Jun-09 06:00N 37°56' E 023°36'1 1.7
2018-Jun-09 05:30N 37°57' E 023°35'0 0.9
2018-Jun-09 05:00N 37°57' E 023°36'0 0.6
2018-Jun-09 04:30N 37°57' E 023°36'0 0.8
2018-Jun-09 04:00N 37°57' E 023°36'1 1.4
2018-Jun-09 03:30N 37°57' E 023°37'0 0.0
2018-Jun-09 03:00N 37°57' E 023°37'  

Dump ship's entire track history